createdAt,value
2018-05-21T00:00:12.829Z,13.23
2018-05-21T00:02:40.873Z,13.24
2018-05-21T00:05:09.281Z,13.27
2018-05-21T00:07:37.332Z,13.25
2018-05-21T00:10:05.408Z,13.26
2018-05-21T00:12:33.701Z,13.25
2018-05-21T00:15:01.740Z,13.24
2018-05-21T00:17:29.805Z,13.20
2018-05-21T00:19:58.297Z,13.17
2018-05-21T00:22:26.382Z,13.12
2018-05-21T00:24:54.437Z,13.08
2018-05-21T00:27:22.817Z,13.05
2018-05-21T00:29:50.901Z,12.97
2018-05-21T00:32:18.953Z,12.89
2018-05-21T00:34:47.021Z,12.89
2018-05-21T00:37:16.245Z,12.90
2018-05-21T00:39:44.302Z,12.92
2018-05-21T00:42:12.781Z,12.91
2018-05-21T00:44:40.841Z,12.91
2018-05-21T00:47:08.909Z,12.91
2018-05-21T00:49:37.401Z,12.90
2018-05-21T00:52:05.401Z,12.89
2018-05-21T00:54:33.477Z,12.88
2018-05-21T00:57:01.560Z,12.88
2018-05-21T00:59:29.601Z,12.89
2018-05-21T01:01:57.689Z,12.89
2018-05-21T01:04:25.750Z,12.86
2018-05-21T01:06:53.802Z,12.81
2018-05-21T01:09:21.865Z,12.81
2018-05-21T01:11:50.281Z,12.80
2018-05-21T01:14:18.352Z,12.79
2018-05-21T01:16:46.425Z,12.74
2018-05-21T01:19:14.801Z,12.72
2018-05-21T01:21:42.857Z,12.69
2018-05-21T01:24:11.841Z,12.64
2018-05-21T01:26:39.937Z,12.59
2018-05-21T01:29:07.992Z,12.55
2018-05-21T01:31:36.389Z,12.53
2018-05-21T01:34:04.474Z,12.49
2018-05-21T01:36:32.517Z,12.47
2018-05-21T01:39:00.880Z,12.44
2018-05-21T01:41:28.941Z,12.38
2018-05-21T01:43:57.036Z,12.34
2018-05-21T01:46:25.429Z,12.35
2018-05-21T01:48:53.484Z,12.35
2018-05-21T01:51:21.546Z,12.35
2018-05-21T01:53:49.646Z,12.35
2018-05-21T01:56:17.696Z,12.32
2018-05-21T01:58:45.762Z,12.28
2018-05-21T02:01:14.137Z,12.28
2018-05-21T02:03:42.221Z,12.26
2018-05-21T02:06:10.281Z,12.27
2018-05-21T02:08:38.633Z,12.26
2018-05-21T02:11:06.641Z,12.26
2018-05-21T02:13:34.892Z,12.25
2018-05-21T02:16:03.001Z,12.23
2018-05-21T02:18:31.044Z,12.25
2018-05-21T02:20:59.102Z,12.29
2018-05-21T02:23:27.525Z,12.26
2018-05-21T02:25:55.785Z,12.28
2018-05-21T02:28:23.873Z,12.29
2018-05-21T02:30:52.149Z,12.29
2018-05-21T02:33:20.233Z,12.28
2018-05-21T02:35:48.297Z,12.27
2018-05-21T02:38:16.389Z,12.26
2018-05-21T02:40:45.237Z,12.23
2018-05-21T02:43:13.308Z,12.20
2018-05-21T02:45:41.364Z,12.18
2018-05-21T02:48:09.449Z,12.15
2018-05-21T02:50:37.496Z,12.12
2018-05-21T02:53:06.027Z,12.08
2018-05-21T02:55:35.687Z,12.06
2018-05-21T02:58:03.761Z,12.03
2018-05-21T03:00:32.176Z,12.01
2018-05-21T03:03:00.351Z,11.98
2018-05-21T03:05:28.420Z,11.96
2018-05-21T03:07:56.480Z,11.92
2018-05-21T03:10:24.564Z,11.85
2018-05-21T03:12:52.637Z,11.80
2018-05-21T03:15:20.849Z,11.83
2018-05-21T03:17:49.672Z,11.83
2018-05-21T03:20:17.732Z,11.79
2018-05-21T03:22:45.845Z,11.76
2018-05-21T03:25:13.917Z,11.70
2018-05-21T03:27:42.277Z,11.61
2018-05-21T03:30:10.385Z,11.59
2018-05-21T03:32:39.244Z,11.54
2018-05-21T03:35:07.325Z,11.48
2018-05-21T03:37:35.767Z,11.44
2018-05-21T03:40:03.841Z,11.41
2018-05-21T03:42:31.884Z,11.35
2018-05-21T03:45:00.241Z,11.33
2018-05-21T03:47:28.280Z,11.31
2018-05-21T03:49:56.369Z,11.30
2018-05-21T03:52:24.925Z,11.27
2018-05-21T03:54:52.984Z,11.21
2018-05-21T03:57:21.052Z,11.19
2018-05-21T03:59:49.473Z,11.19
2018-05-21T04:02:17.517Z,11.26
2018-05-21T04:04:45.576Z,11.28
2018-05-21T04:07:13.649Z,11.28
2018-05-21T04:09:41.745Z,11.40
2018-05-21T04:12:09.813Z,11.47
2018-05-21T04:14:37.905Z,11.45
2018-05-21T04:17:06.034Z,11.58
2018-05-21T04:19:34.109Z,11.67
2018-05-21T04:22:02.600Z,11.68
2018-05-21T04:24:30.658Z,11.69
2018-05-21T04:26:58.733Z,11.55
2018-05-21T04:29:26.902Z,11.49
2018-05-21T04:31:55.908Z,11.56
2018-05-21T04:34:23.993Z,11.61
2018-05-21T04:36:52.081Z,11.67
2018-05-21T04:39:20.461Z,11.70
2018-05-21T04:41:48.500Z,11.69
2018-05-21T04:44:16.569Z,11.67
2018-05-21T04:46:44.677Z,11.70
2018-05-21T04:49:12.745Z,11.80
2018-05-21T04:51:40.817Z,11.90
2018-05-21T04:54:10.601Z,11.96
2018-05-21T04:56:38.660Z,12.09
2018-05-21T04:59:06.728Z,12.22
2018-05-21T05:01:34.841Z,12.32
2018-05-21T05:04:02.887Z,12.45
2018-05-21T05:06:30.949Z,12.51
2018-05-21T05:08:59.030Z,12.68
2018-05-21T05:11:27.933Z,12.85
2018-05-21T05:13:56.701Z,12.88
2018-05-21T05:16:24.788Z,13.06
2018-05-21T05:18:52.878Z,13.22
2018-05-21T05:21:21.869Z,13.32
2018-05-21T05:23:49.941Z,13.47
2018-05-21T05:26:18.013Z,13.53
2018-05-21T05:28:46.393Z,13.61
2018-05-21T05:31:15.561Z,13.63
2018-05-21T05:33:44.461Z,13.61
2018-05-21T05:36:12.565Z,13.69
2018-05-21T05:38:40.605Z,13.80
2018-05-21T05:41:08.972Z,13.92
2018-05-21T05:43:37.060Z,14.02
2018-05-21T05:46:05.116Z,14.18
2018-05-21T05:48:34.445Z,14.24
2018-05-21T05:51:02.517Z,14.41
2018-05-21T05:53:30.568Z,14.53
2018-05-21T05:55:59.817Z,14.62
2018-05-21T05:58:28.663Z,14.80
2018-05-21T06:00:56.764Z,14.91
2018-05-21T06:03:25.124Z,15.02
2018-05-21T06:05:53.202Z,15.13
2018-05-21T06:08:21.281Z,15.27
2018-05-21T06:10:49.754Z,15.37
2018-05-21T06:13:17.810Z,15.45
2018-05-21T06:15:45.876Z,15.39
2018-05-21T06:18:14.169Z,15.67
2018-05-21T06:20:42.220Z,15.33
2018-05-21T06:23:10.280Z,15.59
2018-05-21T06:25:38.692Z,15.80
2018-05-21T06:28:06.746Z,15.98
2018-05-21T06:30:34.802Z,16.17
2018-05-21T06:33:02.901Z,16.31
2018-05-21T06:35:31.104Z,16.29
2018-05-21T06:37:59.956Z,16.53
2018-05-21T06:40:28.416Z,16.48
2018-05-21T06:42:56.481Z,16.80
2018-05-21T06:45:24.551Z,17.03
2018-05-21T06:47:52.940Z,17.01
2018-05-21T06:50:21.024Z,17.36
2018-05-21T06:52:49.113Z,17.45
2018-05-21T06:55:17.460Z,17.66
2018-05-21T06:57:45.544Z,17.72
2018-05-21T07:00:13.633Z,17.73
2018-05-21T07:02:41.987Z,17.97
2018-05-21T07:05:10.044Z,18.11
2018-05-21T07:07:38.112Z,18.12
2018-05-21T07:10:06.213Z,18.38
2018-05-21T07:12:34.708Z,18.31
2018-05-21T07:15:02.748Z,18.29
2018-05-21T07:17:30.852Z,18.56
2018-05-21T07:19:58.921Z,18.85
2018-05-21T07:22:27.700Z,19.54
2018-05-21T07:24:55.780Z,20.54
2018-05-21T07:27:23.853Z,21.37
2018-05-21T07:29:51.937Z,22.43
2018-05-21T07:32:20.009Z,23.90
2018-05-21T07:34:48.049Z,25.25
2018-05-21T07:37:16.153Z,25.50
2018-05-21T07:39:44.192Z,25.04
2018-05-21T07:42:12.297Z,24.83
2018-05-21T07:44:40.832Z,25.73
2018-05-21T07:47:09.009Z,25.29
2018-05-21T07:49:37.005Z,24.15
2018-05-21T07:52:05.384Z,22.89
2018-05-21T07:54:33.429Z,23.36
2018-05-21T07:57:01.492Z,23.43
2018-05-21T07:59:29.905Z,24.51
2018-05-21T08:01:57.960Z,24.71
2018-05-21T08:04:26.051Z,24.79
2018-05-21T08:06:54.605Z,25.26
2018-05-21T08:09:22.691Z,25.28
2018-05-21T08:11:51.430Z,25.46
2018-05-21T08:14:19.500Z,26.08
2018-05-21T08:16:47.549Z,26.62
2018-05-21T08:19:15.909Z,25.97
2018-05-21T08:21:43.980Z,26.96
2018-05-21T08:24:12.949Z,27.50
2018-05-21T08:26:41.020Z,26.19
2018-05-21T08:29:09.100Z,25.47
2018-05-21T08:31:37.173Z,25.38
2018-05-21T08:34:05.278Z,26.18
2018-05-21T08:36:33.349Z,26.34
2018-05-21T08:39:01.709Z,26.24
2018-05-21T08:41:29.781Z,27.14
2018-05-21T08:43:58.744Z,27.66
2018-05-21T08:46:26.829Z,27.42
2018-05-21T08:48:54.892Z,27.09
2018-05-21T08:51:23.584Z,25.94
2018-05-21T08:53:51.673Z,25.25
2018-05-21T08:56:19.745Z,26.05
2018-05-21T08:58:48.676Z,26.32
2018-05-21T09:01:16.724Z,25.22
2018-05-21T09:03:44.795Z,25.80
2018-05-21T09:06:13.116Z,26.36
2018-05-21T09:08:41.193Z,27.07
2018-05-21T09:11:10.633Z,27.21
2018-05-21T09:13:38.684Z,27.53
2018-05-21T09:16:06.744Z,28.89
2018-05-21T09:18:35.153Z,28.77
2018-05-21T09:21:03.228Z,28.29
2018-05-21T09:23:31.297Z,28.55
2018-05-21T09:25:59.450Z,28.26
2018-05-21T09:28:27.437Z,27.43
2018-05-21T09:30:55.508Z,27.50
2018-05-21T09:33:23.757Z,28.30
2018-05-21T09:35:52.752Z,27.44
2018-05-21T09:38:20.812Z,28.08
2018-05-21T09:40:48.905Z,29.34
2018-05-21T09:43:17.301Z,28.88
2018-05-21T09:45:45.373Z,29.09
2018-05-21T09:48:13.485Z,29.33
2018-05-21T09:50:41.792Z,28.58
2018-05-21T09:53:09.877Z,28.66
2018-05-21T09:55:38.053Z,29.98
2018-05-21T09:58:06.633Z,30.02
2018-05-21T10:00:34.723Z,29.92
2018-05-21T10:03:02.793Z,28.16
2018-05-21T10:05:31.793Z,30.20
2018-05-21T10:07:59.840Z,30.95
2018-05-21T10:10:27.900Z,32.20
2018-05-21T10:12:56.310Z,30.55
2018-05-21T10:15:24.381Z,31.44
2018-05-21T10:17:53.188Z,31.40
2018-05-21T10:20:22.336Z,31.93
2018-05-21T10:22:50.411Z,28.57
2018-05-21T10:25:18.493Z,27.41
2018-05-21T10:27:46.609Z,29.19
2018-05-21T10:30:15.495Z,29.02
2018-05-21T10:32:43.557Z,29.76
2018-05-21T10:35:11.892Z,30.66
2018-05-21T10:37:39.977Z,31.92
2018-05-21T10:40:08.033Z,30.35
2018-05-21T10:42:36.413Z,29.48
2018-05-21T10:45:04.497Z,28.67
2018-05-21T10:47:32.557Z,31.87
2018-05-21T10:50:00.865Z,32.16
2018-05-21T10:52:28.913Z,30.79
2018-05-21T10:54:56.976Z,30.82
2018-05-21T10:57:25.381Z,31.90
2018-05-21T10:59:53.425Z,31.32
2018-05-21T11:02:21.487Z,29.99
2018-05-21T11:04:49.597Z,30.87
2018-05-21T11:07:17.674Z,29.65
2018-05-21T11:09:45.737Z,31.16
2018-05-21T11:12:14.168Z,30.57
2018-05-21T11:14:42.206Z,29.90
2018-05-21T11:17:10.272Z,29.63
2018-05-21T11:19:38.817Z,30.96
2018-05-21T11:22:06.900Z,30.16
2018-05-21T11:24:35.043Z,29.01
2018-05-21T11:27:03.058Z,29.84
2018-05-21T11:29:31.118Z,29.17
2018-05-21T11:31:59.224Z,32.03
2018-05-21T11:34:27.785Z,30.78
2018-05-21T11:36:55.853Z,30.25
2018-05-21T11:39:23.925Z,29.86
2018-05-21T11:41:51.989Z,29.23
2018-05-21T11:44:20.068Z,30.11
2018-05-21T11:46:48.109Z,30.31
2018-05-21T11:49:16.192Z,29.96
2018-05-21T11:51:44.280Z,30.87
2018-05-21T11:54:12.353Z,29.61
2018-05-21T11:56:40.816Z,29.21
2018-05-21T11:59:08.904Z,30.51
2018-05-21T12:01:36.985Z,29.92
2018-05-21T12:04:05.357Z,30.17
2018-05-21T12:06:33.409Z,30.74
2018-05-21T12:09:01.845Z,31.14
2018-05-21T12:11:29.943Z,30.16
2018-05-21T12:13:58.017Z,28.23
2018-05-21T12:16:26.084Z,29.43
2018-05-21T12:18:54.193Z,29.29
2018-05-21T12:21:22.267Z,31.38
2018-05-21T12:23:50.337Z,32.15
2018-05-21T12:26:19.950Z,32.17
2018-05-21T12:28:49.549Z,30.09
2018-05-21T12:31:17.624Z,29.41
2018-05-21T12:33:45.679Z,28.44
2018-05-21T12:36:13.737Z,29.94
2018-05-21T12:38:41.824Z,30.86
2018-05-21T12:41:10.288Z,29.54
2018-05-21T12:43:38.444Z,30.01
2018-05-21T12:46:06.473Z,30.13
2018-05-21T12:48:34.517Z,30.43
2018-05-21T12:51:02.606Z,30.95
2018-05-21T12:53:30.656Z,29.87
2018-05-21T12:55:59.464Z,30.87
2018-05-21T12:58:27.537Z,30.78
2018-05-21T13:00:55.604Z,31.12
2018-05-21T13:03:23.701Z,30.93
2018-05-21T13:05:52.556Z,30.92
2018-05-21T13:08:20.641Z,30.17
2018-05-21T13:10:48.737Z,30.57
2018-05-21T13:13:17.569Z,30.44
2018-05-21T13:15:45.631Z,29.67
2018-05-21T13:18:13.921Z,30.05
2018-05-21T13:20:41.985Z,29.53
2018-05-21T13:23:10.080Z,30.98
2018-05-21T13:25:38.360Z,30.90
2018-05-21T13:28:06.487Z,31.14
2018-05-21T13:30:34.512Z,31.02
2018-05-21T13:33:02.893Z,30.73
2018-05-21T13:35:30.964Z,31.44
2018-05-21T13:37:59.033Z,31.12
2018-05-21T13:40:27.122Z,31.24
2018-05-21T13:42:56.685Z,31.34
2018-05-21T13:45:24.947Z,31.10
2018-05-21T13:47:53.337Z,29.18
2018-05-21T13:50:21.421Z,29.77
2018-05-21T13:52:49.510Z,30.65
2018-05-21T13:55:17.569Z,29.32
2018-05-21T13:57:45.841Z,30.79
2018-05-21T14:00:13.901Z,30.47
2018-05-21T14:02:42.513Z,29.95
2018-05-21T14:05:10.556Z,29.80
2018-05-21T14:07:38.616Z,29.00
2018-05-21T14:10:07.049Z,28.57
2018-05-21T14:12:35.198Z,28.22
2018-05-21T14:15:03.980Z,28.29
2018-05-21T14:17:32.081Z,28.81
2018-05-21T14:20:00.152Z,30.89
2018-05-21T14:22:28.193Z,28.71
2018-05-21T14:24:56.547Z,30.05
2018-05-21T14:27:25.565Z,30.50
2018-05-21T14:29:53.679Z,29.74
2018-05-21T14:32:21.681Z,30.76
2018-05-21T14:34:50.101Z,29.78
2018-05-21T14:37:18.144Z,27.57
2018-05-21T14:39:46.229Z,27.18
2018-05-21T14:42:14.332Z,26.96
2018-05-21T14:44:42.400Z,26.96
2018-05-21T14:47:10.473Z,26.88
2018-05-21T14:49:39.016Z,26.62
2018-05-21T14:52:07.301Z,27.15
2018-05-21T14:54:35.361Z,26.77
2018-05-21T14:57:03.768Z,27.38
2018-05-21T14:59:31.824Z,28.61
2018-05-21T15:01:59.998Z,29.10
2018-05-21T15:04:28.291Z,28.76
2018-05-21T15:06:56.361Z,29.22
2018-05-21T15:09:24.433Z,29.61
2018-05-21T15:11:53.117Z,29.13
2018-05-21T15:14:21.161Z,28.29
2018-05-21T15:16:49.277Z,27.47
2018-05-21T15:19:18.461Z,27.53
2018-05-21T15:21:46.528Z,26.39
2018-05-21T15:24:14.606Z,25.32
2018-05-21T15:26:42.689Z,25.76
2018-05-21T15:29:11.753Z,25.78
2018-05-21T15:31:39.809Z,26.19
2018-05-21T15:34:08.386Z,26.22
2018-05-21T15:36:36.481Z,26.28
2018-05-21T15:39:04.564Z,26.45
2018-05-21T15:41:32.945Z,26.50
2018-05-21T15:44:00.990Z,26.60
2018-05-21T15:46:29.074Z,26.75
2018-05-21T15:48:57.979Z,26.89
2018-05-21T15:51:26.048Z,26.96
2018-05-21T15:53:54.903Z,26.49
2018-05-21T15:56:23.022Z,26.86
2018-05-21T15:58:51.100Z,26.96
2018-05-21T16:01:19.171Z,27.09
2018-05-21T16:03:47.541Z,26.33
2018-05-21T16:06:15.622Z,26.18
2018-05-21T16:08:43.756Z,26.49
2018-05-21T16:11:12.229Z,26.84
2018-05-21T16:13:40.313Z,27.08
2018-05-21T16:16:08.405Z,27.22
2018-05-21T16:18:36.469Z,27.18
2018-05-21T16:21:04.529Z,27.01
2018-05-21T16:23:32.589Z,27.05
2018-05-21T16:26:00.965Z,27.12
2018-05-21T16:28:29.029Z,26.81
2018-05-21T16:30:57.130Z,26.75
2018-05-21T16:33:26.208Z,26.25
2018-05-21T16:35:54.265Z,26.08
2018-05-21T16:38:22.421Z,26.01
2018-05-21T16:40:51.061Z,25.82
2018-05-21T16:43:19.133Z,25.78
2018-05-21T16:45:47.176Z,25.71
2018-05-21T16:48:15.256Z,25.64
2018-05-21T16:50:43.537Z,25.44
2018-05-21T16:53:11.593Z,25.27
2018-05-21T16:55:39.901Z,25.29
2018-05-21T16:58:07.940Z,25.23
2018-05-21T17:00:36.026Z,25.11
2018-05-21T17:03:04.492Z,24.93
2018-05-21T17:05:32.552Z,24.80
2018-05-21T17:08:01.208Z,24.69
2018-05-21T17:10:29.264Z,24.66
2018-05-21T17:12:57.307Z,24.58
2018-05-21T17:15:25.669Z,24.48
2018-05-21T17:17:53.757Z,24.33
2018-05-21T17:20:21.923Z,24.19
2018-05-21T17:22:49.916Z,23.94
2018-05-21T17:25:17.964Z,23.77
2018-05-21T17:27:46.025Z,23.63
2018-05-21T17:30:14.406Z,23.64
2018-05-21T17:32:42.597Z,23.58
2018-05-21T17:35:10.676Z,23.45
2018-05-21T17:37:38.770Z,23.40
2018-05-21T17:40:07.599Z,23.36
2018-05-21T17:42:35.670Z,23.27
2018-05-21T17:45:03.753Z,23.36
2018-05-21T17:47:31.817Z,23.26
2018-05-21T17:49:59.912Z,23.24
2018-05-21T17:52:28.307Z,23.16
2018-05-21T17:54:57.874Z,23.13
2018-05-21T17:57:25.957Z,23.04
2018-05-21T17:59:54.038Z,22.94
2018-05-21T18:02:22.096Z,22.85
2018-05-21T18:04:50.185Z,22.56
2018-05-21T18:07:18.548Z,22.35
2018-05-21T18:09:46.788Z,22.21
2018-05-21T18:12:14.885Z,22.13
2018-05-21T18:14:43.122Z,22.07
2018-05-21T18:17:11.973Z,22.01
2018-05-21T18:19:40.061Z,21.88
2018-05-21T18:22:08.503Z,21.73
2018-05-21T18:24:36.574Z,21.60
2018-05-21T18:27:04.620Z,21.45
2018-05-21T18:29:33.061Z,21.39
2018-05-21T18:32:01.134Z,21.29
2018-05-21T18:34:29.368Z,21.17
2018-05-21T18:36:57.481Z,21.07
2018-05-21T18:39:25.529Z,20.90
2018-05-21T18:41:53.609Z,20.70
2018-05-21T18:44:21.669Z,20.44
2018-05-21T18:46:49.733Z,20.36
2018-05-21T18:49:17.796Z,20.22
2018-05-21T18:51:46.177Z,20.13
2018-05-21T18:54:14.251Z,20.01
2018-05-21T18:56:42.296Z,19.97
2018-05-21T18:59:10.724Z,19.90
2018-05-21T19:01:38.784Z,19.74
2018-05-21T19:04:06.865Z,19.57
2018-05-21T19:06:35.246Z,19.56
2018-05-21T19:09:03.313Z,19.39
2018-05-21T19:11:31.521Z,19.31
2018-05-21T19:13:59.584Z,19.24
2018-05-21T19:16:27.667Z,19.05
2018-05-21T19:18:56.522Z,18.93
2018-05-21T19:21:25.024Z,18.90
2018-05-21T19:23:53.090Z,18.80
2018-05-21T19:26:21.137Z,18.67
2018-05-21T19:28:49.512Z,18.65
2018-05-21T19:31:17.572Z,18.55
2018-05-21T19:33:45.673Z,18.46
2018-05-21T19:36:13.828Z,18.35
2018-05-21T19:38:41.912Z,18.20
2018-05-21T19:41:09.977Z,18.05
2018-05-21T19:43:38.477Z,17.91
2018-05-21T19:46:06.553Z,17.87
2018-05-21T19:48:34.624Z,17.73
2018-05-21T19:51:03.001Z,17.71
2018-05-21T19:53:31.077Z,17.69
2018-05-21T19:55:59.118Z,17.67
2018-05-21T19:58:27.498Z,17.63
2018-05-21T20:00:55.556Z,17.51
2018-05-21T20:03:23.649Z,17.33
2018-05-21T20:05:52.120Z,17.28
2018-05-21T20:08:20.214Z,17.18
2018-05-21T20:10:48.260Z,17.09
2018-05-21T20:13:16.773Z,17.06
2018-05-21T20:15:44.861Z,16.99
2018-05-21T20:18:12.896Z,16.97
2018-05-21T20:20:40.969Z,16.95
2018-05-21T20:23:09.028Z,16.92
2018-05-21T20:25:37.117Z,16.87
2018-05-21T20:28:05.477Z,16.79
2018-05-21T20:30:33.561Z,16.74
2018-05-21T20:33:01.622Z,16.62
2018-05-21T20:35:29.722Z,16.58
2018-05-21T20:37:57.779Z,16.52
2018-05-21T20:40:25.836Z,16.47
2018-05-21T20:42:54.228Z,16.40
2018-05-21T20:45:22.379Z,16.31
2018-05-21T20:47:50.344Z,16.31
2018-05-21T20:50:18.572Z,16.33
2018-05-21T20:52:46.645Z,16.30
2018-05-21T20:55:14.684Z,16.24
2018-05-21T20:57:43.049Z,16.13
2018-05-21T21:00:11.137Z,16.10
2018-05-21T21:02:39.309Z,16.08
2018-05-21T21:05:07.673Z,16.08
2018-05-21T21:07:35.769Z,16.06
2018-05-21T21:10:03.850Z,16.05
2018-05-21T21:12:31.925Z,16.02
2018-05-21T21:15:00.049Z,15.95
2018-05-21T21:17:28.120Z,15.93
2018-05-21T21:19:56.205Z,15.86
2018-05-21T21:22:24.289Z,15.87
2018-05-21T21:24:52.348Z,15.80
2018-05-21T21:27:20.854Z,15.76
2018-05-21T21:29:48.900Z,15.71
2018-05-21T21:32:16.960Z,15.69
2018-05-21T21:34:45.072Z,15.68
2018-05-21T21:37:13.148Z,15.66
2018-05-21T21:39:41.197Z,15.56
2018-05-21T21:42:09.527Z,15.54
2018-05-21T21:44:38.429Z,15.56
2018-05-21T21:47:06.428Z,15.56
2018-05-21T21:49:34.811Z,15.56
2018-05-21T21:52:02.865Z,15.54
2018-05-21T21:54:30.936Z,15.47
2018-05-21T21:56:59.221Z,15.43
2018-05-21T21:59:27.304Z,15.38
2018-05-21T22:01:55.364Z,15.34
2018-05-21T22:04:23.437Z,15.35
2018-05-21T22:06:51.525Z,15.30
2018-05-21T22:09:19.581Z,15.32
2018-05-21T22:11:47.985Z,15.31
2018-05-21T22:14:16.062Z,15.30
2018-05-21T22:16:44.196Z,15.25
2018-05-21T22:19:12.273Z,15.24
2018-05-21T22:21:40.356Z,15.23
2018-05-21T22:24:08.417Z,15.24
2018-05-21T22:26:36.517Z,15.23
2018-05-21T22:29:04.601Z,15.17
2018-05-21T22:31:32.656Z,15.19
2018-05-21T22:34:00.744Z,15.17
2018-05-21T22:36:28.787Z,15.14
2018-05-21T22:38:56.845Z,15.10
2018-05-21T22:41:24.928Z,15.07
2018-05-21T22:43:53.030Z,15.07
2018-05-21T22:46:21.101Z,15.11
2018-05-21T22:48:49.189Z,15.12
2018-05-21T22:51:18.009Z,15.13
2018-05-21T22:53:46.104Z,15.18
2018-05-21T22:56:14.209Z,15.19
2018-05-21T22:58:42.244Z,15.24
2018-05-21T23:01:10.305Z,15.16
2018-05-21T23:03:38.609Z,15.20
2018-05-21T23:06:06.770Z,15.21
2018-05-21T23:08:34.857Z,15.25
2018-05-21T23:11:02.949Z,15.32
2018-05-21T23:13:31.801Z,15.30
2018-05-21T23:15:59.909Z,15.34
2018-05-21T23:18:28.856Z,15.38
2018-05-21T23:20:56.937Z,15.41
2018-05-21T23:23:25.041Z,15.44
2018-05-21T23:25:53.317Z,15.44
2018-05-21T23:28:21.356Z,15.47
2018-05-21T23:30:49.413Z,15.44
2018-05-21T23:33:17.517Z,15.28
2018-05-21T23:35:45.585Z,15.27
2018-05-21T23:38:13.656Z,15.23
2018-05-21T23:40:41.748Z,15.28
2018-05-21T23:43:10.577Z,15.30
2018-05-21T23:45:38.665Z,15.32
2018-05-21T23:48:06.748Z,15.35
2018-05-21T23:50:34.804Z,15.38
2018-05-21T23:53:02.893Z,15.35
2018-05-21T23:55:31.285Z,15.30
2018-05-21T23:57:59.357Z,15.23
